Time;durP1;ratioP1;P1;durP2;ratioP2;P2;SDS_P1;SDS_P2;PMS_P1;PMS_P2;Temp;Humidity;BMP_temperature;BMP_pressure;BME280_temperature;BME280_humidity;BME280_pressure;Samples;Min_cycle;Max_cycle;Signal;HPM_P1;HPM_P2
2022/12/27 00:01:28;;;;;;;11.23;4.53;;;;;;;;;;4980184;28;20192;-87
2022/12/27 00:03:53;;;;;;;8.80;3.73;;;6.50;99.90;;;;;;4996620;28;20185;-86
2022/12/27 00:06:22;;;;;;;9.73;4.70;;;6.50;99.90;;;;;;4964009;28;20189;-88
2022/12/27 00:08:48;;;;;;;10.07;4.60;;;;;;;;;;4996479;28;20572;-87
2022/12/27 00:11:17;;;;;;;7.07;3.87;;;6.50;99.90;;;;;;4996280;28;20619;-88
2022/12/27 00:13:43;;;;;;;8.87;5.23;;;6.40;99.90;;;;;;4996383;28;20224;-87
2022/12/27 00:16:12;;;;;;;9.00;4.80;;;6.40;99.90;;;;;;4964161;28;20654;-87
2022/12/27 00:18:39;;;;;;;8.03;4.63;;;6.40;99.90;;;;;;4996246;28;20182;-86
2022/12/27 00:21:06;;;;;;;10.87;3.30;;;6.50;99.90;;;;;;4993357;28;20178;-87
2022/12/27 00:23:36;;;;;;;7.37;4.37;;;6.40;99.90;;;;;;4979549;28;20191;-87
2022/12/27 00:26:04;;;;;;;7.10;4.13;;;6.40;99.90;;;;;;4977029;28;20265;-87
2022/12/27 00:28:31;;;;;;;10.10;5.40;;;;;;;;;;4977761;28;20206;-85
2022/12/27 00:30:57;;;;;;;4.60;3.80;;;6.30;99.90;;;;;;4979841;28;20194;-85
2022/12/27 00:33:24;;;;;;;6.93;3.97;;;;;;;;;;4979724;28;20237;-86
2022/12/27 00:35:52;;;;;;;4.63;3.73;;;6.30;99.90;;;;;;4995929;28;20217;-85
2022/12/27 00:38:18;;;;;;;8.70;3.83;;;6.20;99.90;;;;;;4980280;28;20204;-88
2022/12/27 00:40:44;;;;;;;12.13;4.40;;;;;;;;;;4979299;28;20234;-88
2022/12/27 00:43:10;;;;;;;10.27;6.50;;;;;;;;;;4995737;28;20186;-87
2022/12/27 00:45:36;;;;;;;11.63;5.53;;;;;;;;;;4978893;28;20302;-88
2022/12/27 00:48:02;;;;;;;7.87;4.13;;;6.10;99.90;;;;;;4976545;28;20193;-87
2022/12/27 00:50:28;;;;;;;10.70;4.77;;;6.10;99.90;;;;;;4960221;28;20183;-87
2022/12/27 00:52:53;;;;;;;7.13;4.70;;;6.10;99.90;;;;;;4960226;28;20182;-87
2022/12/27 00:55:19;;;;;;;8.17;4.50;;;6.10;99.90;;;;;;4975211;28;20580;-88
2022/12/27 00:57:45;;;;;;;9.47;4.47;;;6.00;99.90;;;;;;4979150;28;20188;-88
2022/12/27 01:00:11;;;;;;;10.40;4.27;;;6.00;99.90;;;;;;4963438;28;20637;-88
2022/12/27 01:02:38;;;;;;;10.13;5.50;;;;;;;;;;4959575;28;20199;-87
2022/12/27 01:05:06;;;;;;;7.83;5.17;;;6.00;99.90;;;;;;4976160;28;20175;-88
2022/12/27 01:07:34;;;;;;;6.10;4.43;;;6.00;99.90;;;;;;4976058;28;20178;-89
2022/12/27 01:10:01;;;;;;;12.00;6.37;;;;;;;;;;4975958;28;20182;-87
2022/12/27 01:12:27;;;;;;;8.67;4.30;;;;;;;;;;4975625;28;20178;-86
2022/12/27 01:14:53;;;;;;;6.47;4.40;;;;;;;;;;4976089;28;20197;-87
2022/12/27 01:17:19;;;;;;;5.10;3.63;;;;;;;;;;4975700;28;20209;-87
2022/12/27 01:19:45;;;;;;;7.17;4.97;;;;;;;;;;4993061;28;20193;-88
2022/12/27 01:22:10;;;;;;;6.40;4.23;;;5.80;99.90;;;;;;4996321;28;20257;-88
2022/12/27 01:24:36;;;;;;;7.87;3.97;;;;;;;;;;4978612;28;20260;-88
2022/12/27 01:27:02;;;;;;;6.50;4.40;;;;;;;;;;4978958;28;20305;-88
2022/12/27 01:29:28;;;;;;;8.00;3.67;;;5.80;99.90;;;;;;4994808;28;20178;-86
2022/12/27 01:31:54;;;;;;;6.80;5.20;;;;;;;;;;4962562;28;20186;-87
2022/12/27 01:34:20;;;;;;;5.77;4.37;;;;;;;;;;4978875;28;20181;-86
2022/12/27 01:36:46;;;;;;;19.03;4.63;;;5.80;99.90;;;;;;4994478;28;20209;-85
2022/12/27 01:39:12;;;;;;;4.57;4.20;;;5.90;99.90;;;;;;4962260;28;20225;-85
2022/12/27 01:44:50;;;;;;;7.03;3.97;;;5.90;99.90;;;;;;4995819;28;20169;-89
2022/12/27 01:47:27;;;;;;;11.10;4.73;;;5.90;99.90;;;;;;4978512;28;20186;-86
2022/12/27 01:50:05;;;;;;;5.53;4.47;;;5.90;99.90;;;;;;4978420;28;20181;-86
2022/12/27 01:52:40;;;;;;;14.13;4.90;;;5.90;99.90;;;;;;4995618;28;20162;-86
2022/12/27 01:55:27;;;;;;;12.07;4.33;;;6.00;99.90;;;;;;4994480;28;20272;-86
2022/12/27 01:57:57;;;;;;;10.07;5.03;;;6.00;99.90;;;;;;4995224;28;20253;-86
2022/12/27 02:00:25;;;;;;;8.57;4.50;;;5.90;99.90;;;;;;4995596;28;20253;-86
2022/12/27 02:02:52;;;;;;;9.67;4.43;;;5.80;99.90;;;;;;4977983;28;20213;-86
2022/12/27 02:05:22;;;;;;;7.37;5.03;;;5.80;99.90;;;;;;4995462;28;20174;-86
2022/12/27 02:08:25;;;;;;;16.17;4.77;;;5.80;99.90;;;;;;4995194;28;20179;-86
2022/12/27 02:10:52;;;;;;;5.27;3.37;;;;;;;;;;4970210;28;20192;-86
2022/12/27 02:13:18;;;;;;;11.83;5.03;;;5.80;99.90;;;;;;4994302;28;20232;-86
2022/12/27 02:15:45;;;;;;;12.00;4.13;;;;;;;;;;4977126;28;20218;-85
2022/12/27 02:18:11;;;;;;;10.63;5.57;;;;;;;;;;4978289;28;20587;-86
2022/12/27 02:21:18;;;;;;;6.40;3.63;;;5.80;99.90;;;;;;4978255;28;20178;-87
2022/12/27 02:24:27;;;;;;;11.63;4.80;;;5.80;99.90;;;;;;4994156;28;20615;-86
2022/12/27 02:27:12;;;;;;;5.20;3.47;;;5.80;99.90;;;;;;4918620;29;20268;-86
2022/12/27 02:29:38;;;;;;;10.37;4.70;;;5.80;99.90;;;;;;4973133;28;20185;-87
2022/12/27 02:32:18;;;;;;;6.10;4.70;;;5.80;99.90;;;;;;4978130;28;20288;-86
2022/12/27 02:34:59;;;;;;;8.07;4.60;;;5.80;99.90;;;;;;4977216;28;20177;-87
2022/12/27 02:37:28;;;;;;;8.80;5.57;;;5.80;99.90;;;;;;4977514;28;20212;-86
2022/12/27 02:53:02;;;;;;;10.27;3.73;;;5.80;99.90;;;;;;4976994;28;20674;-86
2022/12/27 02:54:53;;;;;;;9.87;4.63;;;5.70;99.90;;;;;;4989311;28;20320;-86
2022/12/27 02:57:27;;;;;;;7.13;4.03;;;5.70;99.90;;;;;;4944959;28;20232;-86
2022/12/27 03:06:38;;;;;;;8.70;5.13;;;5.80;99.90;;;;;;4994061;28;20260;-87
2022/12/27 03:08:49;;;;;;;14.30;4.57;;;7.80;99.90;;;;;;4993821;28;20245;-90
2022/12/27 03:17:26;;;;;;;4.63;3.33;;;6.00;99.90;;;;;;4974783;28;20224;-87
2022/12/27 03:25:33;;;;;;;4.23;3.47;;;6.00;99.90;;;;;;4993770;28;20524;-87
2022/12/27 03:34:03;;;;;;;7.20;4.83;;;6.10;99.90;;;;;;4974610;28;20699;-86
2022/12/27 03:39:29;;;;;;;6.70;4.50;;;6.20;99.90;;;;;;4981045;28;20323;-87
2022/12/27 03:44:57;;;;;;;6.97;4.27;;;;;;;;;;4993733;28;20176;-86
2022/12/27 03:47:41;;;;;;;8.57;4.70;;;6.20;99.90;;;;;;4992639;28;20182;-86
2022/12/27 03:50:21;;;;;;;9.67;4.40;;;6.10;99.90;;;;;;4976374;28;20184;-86
2022/12/27 03:53:07;;;;;;;9.60;5.17;;;6.20;99.90;;;;;;4993614;28;20185;-86
2022/12/27 03:55:33;;;;;;;6.17;3.73;;;6.20;99.90;;;;;;4965916;28;20196;-86
2022/12/27 03:57:59;;;;;;;6.57;4.77;;;6.20;99.90;;;;;;4994073;28;20178;-86
2022/12/27 04:00:25;;;;;;;18.67;6.23;;;;;;;;;;4976431;28;20185;-86
2022/12/27 04:02:51;;;;;;;8.57;5.20;;;;;;;;;;4976747;28;20664;-85
2022/12/27 04:05:17;;;;;;;4.33;3.60;;;6.20;99.90;;;;;;4993611;28;20204;-86
2022/12/27 04:35:08;;;;;;;6.47;4.03;;;6.50;99.90;;;;;;4999233;28;20180;-87
2022/12/27 04:37:34;;;;;;;3.47;3.17;;;6.50;99.90;;;;;;4987871;28;20206;-87
2022/12/27 04:56:28;;;;;;;4.60;2.80;;;6.50;99.90;;;;;;4998105;28;20685;-88
2022/12/27 05:04:24;;;;;;;1.60;1.50;;;;;;;;;;4976336;28;20706;-86
2022/12/27 05:06:49;;;;;;;2.30;2.03;;;6.30;99.90;;;;;;4978470;28;20627;-87
2022/12/27 05:14:45;;;;;;;2.30;1.70;;;;;;;;;;4992012;28;20535;-87
2022/12/27 05:17:21;;;;;;;2.57;2.07;;;6.30;99.90;;;;;;4975144;28;20693;-88
2022/12/27 05:19:47;;;;;;;2.30;1.90;;;;;;;;;;4978361;28;20280;-87
2022/12/27 05:27:42;;;;;;;5.13;3.10;;;;;;;;;;4993846;28;20539;-87
2022/12/27 05:30:08;;;;;;;2.77;1.33;;;6.20;99.90;;;;;;4962527;28;20186;-87
2022/12/27 05:32:37;;;;;;;5.63;3.37;;;;;;;;;;4996790;28;20209;-87
2022/12/27 05:35:03;;;;;;;1.57;1.40;;;;;;;;;;4994774;28;20273;-87
2022/12/27 05:37:29;;;;;;;2.77;1.93;;;;;;;;;;4978990;28;20320;-87
2022/12/27 05:39:55;;;;;;;2.93;1.20;;;;;;;;;;4979721;28;20234;-87
2022/12/27 05:42:21;;;;;;;6.93;1.93;;;;;;;;;;4963608;28;20190;-87
2022/12/27 05:44:47;;;;;;;2.83;2.07;;;;;;;;;;4994869;28;20186;-87
2022/12/27 05:47:13;;;;;;;2.07;1.63;;;;;;;;;;4975520;28;20588;-88
2022/12/27 05:49:39;;;;;;;2.77;1.87;;;;;;;;;;4977052;28;20643;-88
2022/12/27 05:52:05;;;;;;;1.90;1.77;;;;;;;;;;4977875;28;20185;-88
2022/12/27 05:54:31;;;;;;;2.73;1.97;;;;;;;;;;4977778;28;20293;-86
2022/12/27 05:56:57;;;;;;;2.07;1.87;;;;;;;;;;4993543;28;20210;-86
2022/12/27 05:59:23;;;;;;;3.00;1.80;;;;;;;;;;4995230;28;20213;-86
2022/12/27 06:01:50;;;;;;;3.83;1.90;;;6.30;99.90;;;;;;4995208;28;20186;-86
2022/12/27 06:04:16;;;;;;;2.67;1.60;;;;;;;;;;4961828;28;20244;-87
2022/12/27 06:06:42;;;;;;;1.53;1.43;;;;;;;;;;4994080;28;20257;-86
2022/12/27 06:09:11;;;;;;;1.27;1.07;;;;;;;;;;4978182;28;20204;-86
2022/12/27 06:11:37;;;;;;;0.80;0.80;;;;;;;;;;4994697;28;20177;-88
2022/12/27 06:14:03;;;;;;;0.97;0.87;;;6.30;99.90;;;;;;4977695;28;20186;-87
2022/12/27 06:16:29;;;;;;;2.83;1.70;;;;;;;;;;4977517;28;20260;-87
2022/12/27 06:18:54;;;;;;;2.20;2.00;;;6.20;99.90;;;;;;4994893;28;20205;-87
2022/12/27 06:21:21;;;;;;;5.47;3.40;;;6.10;99.90;;;;;;4945310;28;20651;-87
2022/12/27 06:23:47;;;;;;;1.90;1.80;;;;;;;;;;4980790;28;20225;-87
2022/12/27 06:26:16;;;;;;;1.37;1.27;;;5.80;99.90;;;;;;4986528;28;20454;-87
2022/12/27 06:28:42;;;;;;;3.87;1.43;;;;;;;;;;4975537;28;20174;-87
2022/12/27 06:31:08;;;;;;;6.53;1.77;;;;;;;;;;4972641;28;20196;-87
2022/12/27 06:33:34;;;;;;;0.67;0.67;;;;;;;;;;4976985;28;20241;-87
2022/12/27 06:36:14;;;;;;;2.33;1.53;;;5.50;99.90;;;;;;4991594;28;20210;-88
2022/12/27 06:38:40;;;;;;;0.80;0.80;;;;;;;;;;4958027;28;20190;-87
2022/12/27 06:41:29;;;;;;;0.90;0.90;;;5.40;99.90;;;;;;4974622;28;20222;-88
2022/12/27 06:44:00;;;;;;;1.20;1.10;;;5.30;99.90;;;;;;4976892;28;20214;-91
2022/12/27 06:46:26;;;;;;;1.10;0.97;;;;;;;;;;4990436;28;20212;-88
2022/12/27 06:48:52;;;;;;;1.47;0.90;;;;;;;;;;4991937;28;20192;-88
2022/12/27 06:51:20;;;;;;;0.70;0.70;;;5.00;99.90;;;;;;4993156;28;20182;-86
2022/12/27 06:53:47;;;;;;;1.23;0.70;;;;;;;;;;4991974;28;20185;-85
2022/12/27 06:56:15;;;;;;;1.07;0.97;;;4.90;99.90;;;;;;4975865;28;20229;-85
2022/12/27 06:58:42;;;;;;;1.13;1.07;;;;;;;;;;4991406;28;20182;-85
2022/12/27 07:01:22;;;;;;;2.10;1.27;;;4.70;99.90;;;;;;4958669;28;20189;-87
2022/12/27 07:03:49;;;;;;;2.50;1.13;;;4.60;99.90;;;;;;4975204;28;20223;-88
2022/12/27 07:06:15;;;;;;;5.50;1.50;;;;;;;;;;4958469;28;20193;-89
2022/12/27 07:08:41;;;;;;;6.37;2.97;;;;;;;;;;4966889;28;20551;-89
2022/12/27 07:11:10;;;;;;;2.17;1.90;;;4.30;99.90;;;;;;4991147;28;20218;-89
2022/12/27 07:13:39;;;;;;;3.40;2.20;;;4.40;99.90;;;;;;4991979;28;20635;-88
2022/12/27 07:16:06;;;;;;;5.17;2.63;;;4.20;99.90;;;;;;4974991;28;20217;-88
2022/12/27 07:18:35;;;;;;;1.70;1.47;;;;;;;;;;4956929;28;20753;-88
2022/12/27 07:21:12;;;;;;;0.60;0.60;;;4.20;99.90;;;;;;4989204;28;20195;-89
2022/12/27 07:23:38;;;;;;;0.87;0.87;;;;;;;;;;4979817;28;20240;-87
2022/12/27 07:26:13;;;;;;;3.47;1.77;;;4.00;99.90;;;;;;4977880;28;20216;-87
2022/12/27 07:28:41;;;;;;;0.70;0.70;;;;;;;;;;4973268;28;20177;-87
2022/12/27 07:31:15;;;;;;;1.53;1.43;;;4.00;99.90;;;;;;4978945;28;20189;-86
2022/12/27 07:33:44;;;;;;;1.87;1.63;;;;;;;;;;4973937;28;20233;-86
2022/12/27 07:36:17;;;;;;;5.60;1.07;;;3.90;99.90;;;;;;4972824;28;20304;-87
2022/12/27 07:38:43;;;;;;;0.77;0.77;;;;;;;;;;4989434;28;20181;-86
2022/12/27 07:41:12;;;;;;;1.67;1.47;;;3.90;99.90;;;;;;4973739;28;20229;-86
2022/12/27 07:43:39;;;;;;;2.57;1.50;;;;;;;;;;4981008;28;20185;-87
2022/12/27 07:46:09;;;;;;;11.13;1.33;;;4.00;99.90;;;;;;4974182;28;20197;-86
2022/12/27 07:48:38;;;;;;;0.80;0.80;;;4.00;99.90;;;;;;4973858;28;20189;-87
2022/12/27 07:51:05;;;;;;;0.80;0.80;;;4.00;99.90;;;;;;4971844;28;20572;-88
2022/12/27 07:53:38;;;;;;;1.10;0.90;;;;;;;;;;4959525;28;20189;-89
2022/12/27 07:56:09;;;;;;;0.60;0.60;;;3.90;99.90;;;;;;4974027;28;20205;-87
2022/12/27 07:58:41;;;;;;;0.83;0.83;;;4.00;99.90;;;;;;4974194;28;20181;-86
2022/12/27 08:01:07;;;;;;;11.63;1.33;;;3.90;99.90;;;;;;4974353;28;20669;-87
2022/12/27 08:03:33;;;;;;;1.00;1.00;;;;;;;;;;4974328;28;20203;-87
2022/12/27 08:06:00;;;;;;;4.03;1.30;;;;;;;;;;4959391;28;20672;-88
2022/12/27 08:08:31;;;;;;;1.33;1.20;;;3.90;99.90;;;;;;4974879;28;20182;-87
2022/12/27 08:10:57;;;;;;;0.80;0.80;;;;;;;;;;4993230;28;20228;-87
2022/12/27 08:13:24;;;;;;;0.60;0.60;;;;;;;;;;4992322;28;20265;-86
2022/12/27 08:15:53;;;;;;;1.17;1.00;;;3.80;99.90;;;;;;4978924;28;20287;-85
2022/12/27 08:18:19;;;;;;;1.43;1.33;;;;;;;;;;4978552;28;20186;-85
2022/12/27 08:20:45;;;;;;;0.80;0.80;;;;;;;;;;4966625;28;20228;-86
2022/12/27 08:23:11;;;;;;;1.50;0.90;;;;;;;;;;4994102;28;20196;-85
2022/12/27 08:25:37;;;;;;;4.00;1.43;;;3.90;99.90;;;;;;4994838;28;20218;-87
2022/12/27 08:28:04;;;;;;;1.13;0.90;;;3.80;99.90;;;;;;4976975;28;20556;-86
2022/12/27 08:30:30;;;;;;;0.60;0.60;;;3.80;99.90;;;;;;4995842;28;20710;-86
2022/12/27 08:32:57;;;;;;;0.60;0.60;;;3.80;99.90;;;;;;4935144;28;20371;-87
2022/12/27 08:35:22;;;;;;;1.00;1.00;;;3.90;99.90;;;;;;4976448;28;20201;-87
2022/12/27 08:37:48;;;;;;;1.93;1.40;;;4.20;99.90;;;;;;4979217;28;20213;-85
2022/12/27 08:40:14;;;;;;;4.90;0.87;;;;;;;;;;4977678;28;20237;-85
2022/12/27 08:42:42;;;;;;;3.07;1.47;;;4.00;99.90;;;;;;4977777;28;20199;-88
2022/12/27 08:45:11;;;;;;;1.10;1.10;;;4.30;99.90;;;;;;4974622;28;20193;-86
2022/12/27 08:47:37;;;;;;;1.50;1.37;;;;;;;;;;4978174;28;20280;-86
2022/12/27 08:50:03;;;;;;;3.83;1.03;;;;;;;;;;4960532;28;20235;-88
2022/12/27 08:52:29;;;;;;;0.83;0.83;;;;;;;;;;4976144;28;20185;-87
2022/12/27 08:54:55;;;;;;;0.83;0.83;;;4.20;99.90;;;;;;4992618;28;20264;-86
2022/12/27 08:57:21;;;;;;;1.37;1.27;;;4.30;99.90;;;;;;4963884;28;20312;-86
2022/12/27 08:59:46;;;;;;;1.00;1.00;;;4.30;99.90;;;;;;4976842;28;20193;-85
2022/12/27 09:02:13;;;;;;;0.60;0.60;;;4.40;99.90;;;;;;4945116;28;20638;-87
2022/12/27 09:04:39;;;;;;;1.33;1.20;;;4.40;99.90;;;;;;4961372;28;20193;-85
2022/12/27 09:07:04;;;;;;;1.23;1.03;;;4.40;99.90;;;;;;4977005;28;20687;-86
2022/12/27 09:09:31;;;;;;;2.50;1.63;;;4.40;99.90;;;;;;4993083;28;20193;-86
2022/12/27 09:11:56;;;;;;;1.23;1.13;;;4.30;99.90;;;;;;4977668;28;20190;-87
2022/12/27 09:14:22;;;;;;;1.63;1.53;;;4.30;99.90;;;;;;4978429;28;20208;-89
2022/12/27 09:16:48;;;;;;;4.07;1.70;;;4.40;99.90;;;;;;4960805;28;20255;-85
2022/12/27 09:19:13;;;;;;;1.13;1.03;;;4.30;99.90;;;;;;4957679;28;20189;-86
2022/12/27 09:21:43;;;;;;;4.13;1.37;;;4.40;99.90;;;;;;4974190;28;20205;-88
2022/12/27 09:24:13;;;;;;;0.87;0.87;;;3.90;99.90;;;;;;4976036;28;20182;-87
2022/12/27 09:26:39;;;;;;;0.97;0.97;;;;;;;;;;4992038;28;20185;-87
2022/12/27 09:29:06;;;;;;;1.57;1.47;;;;;;;;;;4977568;28;20634;-87
2022/12/27 09:31:32;;;;;;;0.93;0.93;;;;;;;;;;4987754;28;20613;-87
2022/12/27 09:33:58;;;;;;;1.20;1.13;;;;;;;;;;4983933;28;20181;-86
2022/12/27 09:36:28;;;;;;;3.37;2.33;;;4.50;99.90;;;;;;4976565;28;20693;-88
2022/12/27 09:38:56;;;;;;;0.63;0.63;;;4.50;99.90;;;;;;4990208;28;20252;-88
2022/12/27 09:41:40;;;;;;;2.67;1.77;;;4.50;99.90;;;;;;4976643;28;20186;-89
2022/12/27 09:44:49;;;;;;;3.50;1.37;;;4.30;99.90;;;;;;4992439;28;20189;-89
2022/12/27 09:47:27;;;;;;;1.50;1.10;;;4.80;99.90;;;;;;4990575;28;20624;-87
2022/12/27 09:50:02;;;;;;;2.77;1.73;;;4.50;99.90;;;;;;4976454;28;20213;-87
2022/12/27 09:52:49;;;;;;;1.40;1.30;;;4.50;99.90;;;;;;4977922;28;20602;-86
2022/12/27 09:55:33;;;;;;;6.37;1.67;;;4.40;99.90;;;;;;4990659;28;20231;-87
2022/12/27 09:58:43;;;;;;;2.77;1.83;;;4.50;99.90;;;;;;4977310;28;20207;-85
2022/12/27 10:01:34;;;;;;;1.23;1.00;;;4.50;99.90;;;;;;4981574;28;20205;-87
2022/12/27 10:04:02;;;;;;;2.70;1.83;;;4.50;99.90;;;;;;4977550;28;20192;-86
2022/12/27 10:06:46;;;;;;;0.77;0.77;;;4.50;99.90;;;;;;4960971;28;20201;-86
2022/12/27 10:09:31;;;;;;;1.67;1.10;;;4.50;99.90;;;;;;4993144;28;20516;-88
2022/12/27 10:12:12;;;;;;;1.80;1.60;;;4.50;99.90;;;;;;4977308;28;20623;-88
2022/12/27 10:14:59;;;;;;;4.37;1.37;;;4.50;99.90;;;;;;4976586;28;20544;-87
2022/12/27 10:17:38;;;;;;;0.80;0.80;;;4.50;99.90;;;;;;4993462;28;20222;-87
2022/12/27 10:20:14;;;;;;;1.00;1.00;;;4.40;99.90;;;;;;4975163;28;20236;-87
2022/12/27 10:22:50;;;;;;;1.67;1.57;;;4.40;99.90;;;;;;4989714;28;20177;-87
2022/12/27 10:25:20;;;;;;;7.60;1.00;;;4.40;99.90;;;;;;4994332;28;20193;-88
2022/12/27 10:27:47;;;;;;;0.60;0.60;;;4.40;99.90;;;;;;4979129;28;20268;-87
2022/12/27 10:30:16;;;;;;;0.67;0.67;;;4.20;99.90;;;;;;4977278;28;20174;-88
2022/12/27 10:32:43;;;;;;;4.63;2.20;;;;;;;;;;4995118;28;20185;-88
2022/12/27 10:35:16;;;;;;;1.60;1.50;;;4.40;99.90;;;;;;4995215;28;20182;-86
2022/12/27 10:37:44;;;;;;;1.60;1.50;;;4.40;99.90;;;;;;4991002;28;20685;-85
2022/12/27 10:40:18;;;;;;;2.27;2.07;;;4.40;99.90;;;;;;4974944;28;20396;-86
2022/12/27 10:43:02;;;;;;;1.50;1.40;;;4.50;99.90;;;;;;4975774;28;20181;-86
2022/12/27 10:45:27;;;;;;;2.57;1.23;;;4.50;99.90;;;;;;4992213;28;20225;-86
2022/12/27 10:47:56;;;;;;;7.63;1.57;;;4.60;99.90;;;;;;4993148;28;20230;-86
2022/12/27 10:50:25;;;;;;;5.83;1.77;;;4.60;99.90;;;;;;4994070;28;20292;-85
2022/12/27 10:52:51;;;;;;;2.73;2.10;;;4.60;99.90;;;;;;4980652;28;20487;-87
2022/12/27 10:55:31;;;;;;;7.23;1.60;;;4.60;99.90;;;;;;4975098;28;20190;-85
2022/12/27 10:57:57;;;;;;;4.53;1.50;;;4.60;99.90;;;;;;4994058;28;20200;-86
2022/12/27 11:00:23;;;;;;;2.10;1.37;;;4.70;99.90;;;;;;4962430;28;20182;-85
2022/12/27 11:02:54;;;;;;;6.03;2.03;;;4.60;99.90;;;;;;4985269;28;20177;-86
2022/12/27 11:05:29;;;;;;;1.03;1.03;;;4.70;99.90;;;;;;4994001;28;20213;-86
2022/12/27 11:07:55;;;;;;;1.63;1.53;;;4.70;99.90;;;;;;5008174;28;20185;-85
2022/12/27 11:10:26;;;;;;;6.67;1.17;;;4.70;99.90;;;;;;4984741;28;20227;-89
2022/12/27 11:13:00;;;;;;;8.50;1.47;;;4.70;99.90;;;;;;4981399;28;20190;-88
2022/12/27 11:15:29;;;;;;;3.33;1.53;;;4.70;99.90;;;;;;4981315;28;20208;-87
2022/12/27 11:18:00;;;;;;;12.30;1.40;;;4.60;99.90;;;;;;5008417;28;20336;-87
2022/12/27 11:20:43;;;;;;;8.97;1.13;;;4.60;99.90;;;;;;4993930;28;20207;-87
2022/12/27 11:23:09;;;;;;;8.13;1.80;;;;;;;;;;5012789;28;20225;-88
2022/12/27 11:25:55;;;;;;;1.10;1.00;;;4.60;99.90;;;;;;5011370;28;20191;-87
2022/12/27 11:28:53;;;;;;;1.30;1.23;;;4.60;99.90;;;;;;4977423;28;20680;-88
2022/12/27 11:31:41;;;;;;;1.37;1.30;;;4.70;99.90;;;;;;4995954;28;20223;-86
2022/12/27 11:34:13;;;;;;;2.97;1.23;;;4.60;99.90;;;;;;4980898;28;20177;-86
2022/12/27 11:36:42;;;;;;;3.57;1.10;;;4.60;99.90;;;;;;4976494;28;20620;-88
2022/12/27 11:39:37;;;;;;;4.63;2.73;;;4.60;99.90;;;;;;4974902;28;20218;-85
2022/12/27 11:42:13;;;;;;;2.10;1.77;;;4.60;99.90;;;;;;4989870;28;20218;-85
2022/12/27 11:44:44;;;;;;;2.83;1.67;;;4.70;99.90;;;;;;4992871;28;20220;-86
2022/12/27 11:47:45;;;;;;;2.73;1.87;;;4.60;99.90;;;;;;4978658;28;20190;-86
2022/12/27 11:50:27;;;;;;;16.17;2.37;;;4.70;99.90;;;;;;4946410;29;20194;-86
2022/12/27 11:52:59;;;;;;;2.17;1.17;;;4.80;99.90;;;;;;4993839;28;20236;-87
2022/12/27 11:55:37;;;;;;;1.67;1.57;;;4.80;99.90;;;;;;4995221;28;20181;-86
2022/12/27 11:58:28;;;;;;;9.53;1.73;;;4.80;99.90;;;;;;4980069;28;20275;-87
2022/12/27 12:01:02;;;;;;;1.77;1.47;;;4.90;99.90;;;;;;4998577;28;20667;-88
2022/12/27 12:03:58;;;;;;;2.00;1.77;;;4.90;99.90;;;;;;4996290;28;20189;-87
2022/12/27 12:06:51;;;;;;;2.50;2.10;;;4.80;99.90;;;;;;4976697;28;20594;-86
2022/12/27 12:09:17;;;;;;;1.83;1.60;;;;;;;;;;4994373;28;20207;-87
2022/12/27 12:11:55;;;;;;;2.10;1.80;;;4.80;99.90;;;;;;4994100;28;20189;-87
2022/12/27 12:14:32;;;;;;;3.63;2.53;;;4.80;99.90;;;;;;4997571;28;20185;-86
2022/12/27 12:17:21;;;;;;;6.63;3.10;;;4.70;99.90;;;;;;4995344;28;20296;-86
2022/12/27 12:20:06;;;;;;;5.47;2.47;;;4.70;99.90;;;;;;4980278;28;20189;-86
2022/12/27 12:23:13;;;;;;;2.90;1.30;;;4.60;99.90;;;;;;4979525;28;20220;-86
2022/12/27 12:25:53;;;;;;;1.47;1.00;;;4.60;99.90;;;;;;4996021;28;20193;-86
2022/12/27 12:29:00;;;;;;;1.80;1.03;;;4.60;99.90;;;;;;4979406;28;20549;-85
2022/12/27 12:32:00;;;;;;;1.57;1.47;;;4.60;99.90;;;;;;4956559;28;20202;-86
2022/12/27 12:34:51;;;;;;;7.53;2.10;;;4.50;99.90;;;;;;4995021;28;20185;-85
2022/12/27 12:37:37;;;;;;;6.93;2.97;;;4.50;99.90;;;;;;4975868;28;20213;-85
2022/12/27 12:40:21;;;;;;;1.03;0.93;;;4.50;99.90;;;;;;4995640;28;20691;-87
2022/12/27 12:42:56;;;;;;;2.13;1.73;;;4.50;99.90;;;;;;4994074;28;20273;-86
2022/12/27 12:45:37;;;;;;;1.30;1.20;;;4.50;99.90;;;;;;4977958;28;20200;-86
2022/12/27 12:48:30;;;;;;;8.33;1.87;;;4.50;99.90;;;;;;4975183;28;20182;-87
2022/12/27 12:51:10;;;;;;;5.53;1.60;;;4.60;99.90;;;;;;4986103;28;20197;-88
2022/12/27 12:53:57;;;;;;;6.30;1.80;;;4.60;99.90;;;;;;4994811;28;20186;-86
2022/12/27 12:56:57;;;;;;;0.80;0.80;;;4.60;99.90;;;;;;4994541;28;20214;-87
2022/12/27 12:59:41;;;;;;;0.80;0.80;;;4.70;99.90;;;;;;4992974;28;20197;-86
2022/12/27 13:02:19;;;;;;;7.07;2.63;;;4.70;99.90;;;;;;4993590;28;20181;-87
2022/12/27 13:04:53;;;;;;;1.60;1.47;;;4.70;99.90;;;;;;4988895;28;20194;-87
2022/12/27 13:07:33;;;;;;;3.77;2.17;;;4.80;99.90;;;;;;4992982;28;20193;-86
2022/12/27 13:10:44;;;;;;;1.67;1.57;;;5.20;99.90;;;;;;4977822;28;20220;-86
2022/12/27 13:13:18;;;;;;;1.07;0.90;;;4.70;99.90;;;;;;4958869;28;20260;-85
2022/12/27 13:16:11;;;;;;;5.73;2.57;;;4.70;99.90;;;;;;4993521;28;20191;-88
2022/12/27 13:19:14;;;;;;;4.33;1.93;;;4.70;99.90;;;;;;4976138;28;20270;-86
2022/12/27 13:22:02;;;;;;;2.33;1.50;;;4.70;99.90;;;;;;4976411;28;20193;-87
2022/12/27 13:24:58;;;;;;;4.50;2.33;;;4.60;99.90;;;;;;4966934;28;20193;-85
2022/12/27 13:27:58;;;;;;;7.73;2.50;;;4.60;99.90;;;;;;4976883;28;20563;-87
2022/12/27 13:30:41;;;;;;;2.87;1.97;;;4.60;99.90;;;;;;4940539;28;20202;-86
2022/12/27 13:33:06;;;;;;;1.47;1.40;;;4.60;99.90;;;;;;4976242;28;20167;-86
2022/12/27 13:35:58;;;;;;;0.80;0.80;;;4.60;99.90;;;;;;4974801;28;20555;-86
2022/12/27 13:38:42;;;;;;;1.77;1.67;;;4.60;99.90;;;;;;4975057;28;20614;-88
2022/12/27 13:41:23;;;;;;;1.27;1.23;;;4.60;99.90;;;;;;4993867;28;20233;-87
2022/12/27 13:43:54;;;;;;;1.40;1.30;;;4.60;99.90;;;;;;4990528;28;20197;-87
2022/12/27 13:46:38;;;;;;;0.87;0.87;;;4.60;99.90;;;;;;4992779;28;20284;-86
2022/12/27 13:49:23;;;;;;;3.80;1.27;;;4.60;99.90;;;;;;4994898;28;20659;-86
2022/12/27 13:51:50;;;;;;;3.80;2.17;;;4.50;99.90;;;;;;4983145;28;20289;-86
2022/12/27 13:54:41;;;;;;;11.43;1.77;;;4.50;99.90;;;;;;4994916;28;20185;-87
2022/12/27 13:57:29;;;;;;;1.23;1.23;;;4.40;99.90;;;;;;4977776;28;20224;-87
2022/12/27 14:00:17;;;;;;;2.60;2.40;;;4.40;99.90;;;;;;4993690;28;20182;-87
2022/12/27 14:03:01;;;;;;;4.43;2.57;;;4.30;99.90;;;;;;4979244;28;20182;-86
2022/12/27 14:05:52;;;;;;;2.07;1.60;;;4.30;99.90;;;;;;4976675;28;20192;-86
2022/12/27 14:08:39;;;;;;;2.40;2.17;;;4.20;99.90;;;;;;4983433;28;20549;-85
2022/12/27 14:11:31;;;;;;;1.70;1.37;;;4.10;99.90;;;;;;4974977;28;20280;-86
2022/12/27 14:13:58;;;;;;;2.33;1.57;;;4.10;99.90;;;;;;4964620;28;20301;-87
2022/12/27 14:16:54;;;;;;;1.67;1.30;;;4.00;99.90;;;;;;4989474;28;20256;-86
2022/12/27 14:19:41;;;;;;;1.57;1.47;;;4.00;99.90;;;;;;4973607;28;20244;-86
2022/12/27 14:22:09;;;;;;;7.23;2.03;;;4.10;99.90;;;;;;4975645;28;20193;-87
2022/12/27 14:25:12;;;;;;;1.73;1.63;;;3.90;99.90;;;;;;4982711;28;20540;-86
2022/12/27 14:27:38;;;;;;;1.60;1.50;;;3.90;99.90;;;;;;4994260;28;20191;-86
2022/12/27 14:30:41;;;;;;;1.30;1.20;;;3.90;99.90;;;;;;4977477;28;20200;-86
2022/12/27 14:33:15;;;;;;;1.33;1.10;;;3.90;99.90;;;;;;4977659;28;20221;-86
2022/12/27 14:35:50;;;;;;;3.97;1.17;;;3.90;99.90;;;;;;4993837;28;20189;-86
2022/12/27 14:39:07;;;;;;;0.90;0.83;;;3.90;99.90;;;;;;4994496;28;20185;-86
2022/12/27 14:42:13;;;;;;;1.80;1.67;;;3.90;99.90;;;;;;4897203;29;20287;-85
2022/12/27 14:44:52;;;;;;;0.97;0.97;;;3.90;99.90;;;;;;4897602;29;20244;-85
2022/12/27 14:47:39;;;;;;;1.10;1.00;;;3.80;99.90;;;;;;4986121;28;20288;-85
2022/12/27 14:50:26;;;;;;;2.40;1.53;;;3.90;99.90;;;;;;4995245;28;20177;-85
2022/12/27 14:53:16;;;;;;;9.30;1.97;;;3.90;99.90;;;;;;4994381;28;20556;-86
2022/12/27 14:55:48;;;;;;;1.47;1.13;;;4.00;99.90;;;;;;4996045;28;20246;-86
2022/12/27 14:58:42;;;;;;;1.17;1.17;;;4.00;99.90;;;;;;4995379;28;20201;-87
2022/12/27 15:01:24;;;;;;;2.53;1.73;;;4.00;99.90;;;;;;4995326;28;20363;-88
2022/12/27 15:04:27;;;;;;;1.50;1.40;;;4.00;99.90;;;;;;4994641;28;20181;-88
2022/12/27 15:07:27;;;;;;;5.70;1.77;;;3.90;99.90;;;;;;4993640;28;20200;-87
2022/12/27 15:10:07;;;;;;;1.33;1.23;;;3.90;99.90;;;;;;4989762;28;20204;-86
2022/12/27 15:12:54;;;;;;;2.87;1.93;;;3.90;99.90;;;;;;4972136;28;20188;-86
2022/12/27 15:15:44;;;;;;;2.00;1.47;;;3.90;99.90;;;;;;4971188;28;20247;-86
2022/12/27 15:18:27;;;;;;;6.00;2.93;;;3.90;99.90;;;;;;4976265;28;20247;-86
2022/12/27 15:21:17;;;;;;;2.03;1.90;;;3.90;99.90;;;;;;4990348;28;20189;-87
2022/12/27 15:23:48;;;;;;;4.53;4.23;;;3.90;99.90;;;;;;4994772;28;20194;-86
2022/12/27 15:26:17;;;;;;;5.47;2.43;;;3.90;99.90;;;;;;4993617;28;20165;-85
2022/12/27 15:28:43;;;;;;;7.83;2.57;;;3.90;99.90;;;;;;4977310;28;20178;-85
2022/12/27 15:31:31;;;;;;;6.30;2.17;;;3.90;99.90;;;;;;4979653;28;20316;-85
2022/12/27 15:34:19;;;;;;;1.47;1.37;;;3.90;99.90;;;;;;4988098;28;20186;-87
2022/12/27 15:36:47;;;;;;;1.47;1.10;;;3.90;99.90;;;;;;4990324;28;20209;-87
2022/12/27 15:39:32;;;;;;;2.30;1.77;;;3.90;99.90;;;;;;4973113;28;20667;-86
2022/12/27 15:42:03;;;;;;;2.80;1.50;;;4.50;99.90;;;;;;4975188;28;20610;-85
2022/12/27 15:44:29;;;;;;;4.67;2.03;;;;;;;;;;4974347;28;20185;-85